createdAt,value
2022-08-29T00:00:01.687Z,1005.46
2022-08-29T00:05:02.019Z,1005.47
2022-08-29T00:10:01.207Z,1005.43
2022-08-29T00:15:01.551Z,1005.42
2022-08-29T00:20:02.075Z,1005.33
2022-08-29T00:25:01.891Z,1005.34
2022-08-29T00:30:01.916Z,1005.37
2022-08-29T00:35:01.366Z,1005.45
2022-08-29T00:40:01.542Z,1005.4
2022-08-29T00:45:02.212Z,1005.41
2022-08-29T00:50:02.034Z,1005.37
2022-08-29T00:55:01.497Z,1005.38
2022-08-29T01:00:01.874Z,1005.38
2022-08-29T01:05:01.799Z,1005.39
2022-08-29T01:10:02.045Z,1005.41
2022-08-29T01:15:01.567Z,1005.48
2022-08-29T01:20:01.774Z,1005.46
2022-08-29T01:25:01.825Z,1005.52
2022-08-29T01:30:01.498Z,1005.59
2022-08-29T01:35:02.886Z,1005.71
2022-08-29T01:40:01.473Z,1005.65
2022-08-29T01:45:02.932Z,1005.66
2022-08-29T01:50:02.030Z,1005.71
2022-08-29T01:55:01.406Z,1005.7
2022-08-29T02:00:01.873Z,1005.74
2022-08-29T02:05:01.584Z,1005.75
2022-08-29T02:10:01.475Z,1005.77
2022-08-29T02:15:01.591Z,1005.81
2022-08-29T02:20:01.711Z,1005.8
2022-08-29T02:25:01.706Z,1005.67
2022-08-29T02:30:02.076Z,1005.6
2022-08-29T02:35:01.271Z,1005.61
2022-08-29T02:40:01.579Z,1005.56
2022-08-29T02:45:01.443Z,1005.53
2022-08-29T02:50:01.450Z,1005.56
2022-08-29T02:55:02.066Z,1005.54
2022-08-29T03:00:01.193Z,1005.61
2022-08-29T03:05:02.168Z,1005.6
2022-08-29T03:10:01.938Z,1005.63
2022-08-29T03:15:01.187Z,1005.57
2022-08-29T03:20:01.445Z,1005.49
2022-08-29T03:25:02.046Z,1005.5
2022-08-29T03:30:01.670Z,1005.46
2022-08-29T03:35:01.160Z,1005.46
2022-08-29T03:40:01.654Z,1005.45
2022-08-29T03:45:01.170Z,1005.52
2022-08-29T03:50:01.635Z,1005.52
2022-08-29T03:55:01.387Z,1005.54
2022-08-29T04:00:02.026Z,1005.5
2022-08-29T04:05:05.947Z,1005.42
2022-08-29T04:10:01.420Z,1005.42
2022-08-29T04:15:01.225Z,1005.45
2022-08-29T04:20:01.691Z,1005.46
2022-08-29T04:25:01.374Z,1005.51
2022-08-29T04:30:01.580Z,1005.59
2022-08-29T04:35:02.009Z,1005.62
2022-08-29T04:40:01.986Z,1005.66
2022-08-29T04:45:01.361Z,1005.69
2022-08-29T04:50:02.107Z,1005.68
2022-08-29T04:55:01.514Z,1005.64
2022-08-29T05:00:02.047Z,1005.63
2022-08-29T05:05:01.592Z,1005.57
2022-08-29T05:10:02.065Z,1005.55
2022-08-29T05:15:01.946Z,1005.6
2022-08-29T05:20:02.055Z,1005.61
2022-08-29T05:25:01.651Z,1005.67
2022-08-29T05:30:01.815Z,1005.77
2022-08-29T05:35:01.694Z,1005.86
2022-08-29T05:40:02.170Z,1005.87
2022-08-29T05:45:01.858Z,1005.9
2022-08-29T05:50:01.686Z,1005.88
2022-08-29T05:55:01.389Z,1005.9
2022-08-29T06:00:01.664Z,1005.92
2022-08-29T06:05:01.375Z,1005.98
2022-08-29T06:10:03.786Z,1005.95
2022-08-29T06:15:01.712Z,1006.01
2022-08-29T06:20:01.420Z,1006.09
2022-08-29T06:25:08.722Z,1006.09
2022-08-29T06:30:02.178Z,1006.07
2022-08-29T06:35:01.614Z,1006.03
2022-08-29T06:40:01.967Z,1006
2022-08-29T06:45:01.208Z,1006.02
2022-08-29T06:50:01.474Z,1006.07
2022-08-29T06:55:01.449Z,1006.05
2022-08-29T07:00:01.644Z,1006.1
2022-08-29T07:05:01.607Z,1006.17
2022-08-29T07:10:01.270Z,1006.22
2022-08-29T07:15:01.271Z,1006.2
2022-08-29T07:20:01.683Z,1006.26
2022-08-29T07:25:01.677Z,1006.31
2022-08-29T07:30:01.317Z,1006.31
2022-08-29T07:35:01.605Z,1006.33
2022-08-29T07:40:01.631Z,1006.33
2022-08-29T07:45:01.963Z,1006.23
2022-08-29T07:50:01.728Z,1006.21
2022-08-29T07:55:01.754Z,1006.24
2022-08-29T08:00:01.717Z,1006.2
2022-08-29T08:05:01.162Z,1006.19
2022-08-29T08:10:01.301Z,1006.19
2022-08-29T08:15:01.827Z,1006.24
2022-08-29T08:20:01.208Z,1006.3
2022-08-29T08:25:01.703Z,1006.29
2022-08-29T08:30:01.532Z,1006.35
2022-08-29T08:35:01.904Z,1006.35
2022-08-29T08:40:01.681Z,1006.29
2022-08-29T08:45:01.278Z,1006.25
2022-08-29T08:50:01.197Z,1006.34
2022-08-29T08:55:01.381Z,1006.38
2022-08-29T09:00:01.400Z,1006.38
2022-08-29T09:05:02.100Z,1006.38
2022-08-29T09:10:01.979Z,1006.34
2022-08-29T09:15:01.441Z,1006.33
2022-08-29T09:20:01.580Z,1006.31
2022-08-29T09:25:01.550Z,1006.39
2022-08-29T09:30:01.207Z,1006.36
2022-08-29T09:35:09.483Z,1006.21
2022-08-29T09:40:02.089Z,1006.3
2022-08-29T09:45:01.723Z,1006.22
2022-08-29T09:50:01.315Z,1006.33
2022-08-29T09:55:01.618Z,1006.27
2022-08-29T10:00:01.397Z,1006.28
2022-08-29T10:05:01.596Z,1006.16
2022-08-29T10:10:01.708Z,1006.09
2022-08-29T10:15:01.207Z,1006.12
2022-08-29T10:20:01.448Z,1006.1
2022-08-29T10:25:01.349Z,1006.09
2022-08-29T10:30:01.915Z,1006.04
2022-08-29T10:35:01.343Z,1006.01
2022-08-29T10:40:01.399Z,1005.94
2022-08-29T10:45:01.615Z,1005.89
2022-08-29T10:50:01.640Z,1005.82
2022-08-29T10:55:01.941Z,1005.76
2022-08-29T11:00:01.839Z,1005.69
2022-08-29T11:05:01.263Z,1005.71
2022-08-29T11:10:01.808Z,1005.63
2022-08-29T11:15:01.569Z,1005.57
2022-08-29T11:20:01.247Z,1005.55
2022-08-29T11:25:01.603Z,1005.54
2022-08-29T11:30:02.172Z,1005.52
2022-08-29T11:35:01.553Z,1005.46
2022-08-29T11:40:01.817Z,1005.48
2022-08-29T11:45:01.536Z,1005.41
2022-08-29T11:50:02.018Z,1005.35
2022-08-29T11:55:01.886Z,1005.31
2022-08-29T12:00:01.304Z,1005.24
2022-08-29T12:05:01.391Z,1005.17
2022-08-29T12:10:02.057Z,1005.2
2022-08-29T12:15:01.708Z,1005.14
2022-08-29T12:20:01.495Z,1005.03
2022-08-29T12:25:01.401Z,1005.05
2022-08-29T12:30:01.699Z,1005.04
2022-08-29T12:35:01.715Z,1004.99
2022-08-29T12:40:02.327Z,1004.9
2022-08-29T12:45:01.452Z,1004.89
2022-08-29T12:50:02.004Z,1004.72
2022-08-29T12:55:02.032Z,1004.71
2022-08-29T13:00:01.857Z,1004.68
2022-08-29T13:05:01.400Z,1004.64
2022-08-29T13:10:01.470Z,1004.64
2022-08-29T13:15:02.228Z,1004.67
2022-08-29T13:20:02.220Z,1004.65
2022-08-29T13:25:01.245Z,1004.62
2022-08-29T13:30:02.153Z,1004.57
2022-08-29T13:35:01.503Z,1004.57
2022-08-29T13:40:01.833Z,1004.55
2022-08-29T13:45:05.281Z,1004.55
2022-08-29T13:50:02.060Z,1004.45
2022-08-29T13:55:01.898Z,1004.37
2022-08-29T14:00:01.924Z,1004.33
2022-08-29T14:05:01.489Z,1004.29
2022-08-29T14:10:01.158Z,1004.22
2022-08-29T14:15:05.388Z,1004.27
2022-08-29T14:20:02.150Z,1004.27
2022-08-29T14:25:01.394Z,1004.22
2022-08-29T14:30:01.701Z,1004.23
2022-08-29T14:35:02.055Z,1004.23
2022-08-29T14:40:01.390Z,1004.21
2022-08-29T14:45:01.365Z,1004.12
2022-08-29T14:50:01.236Z,1004.11
2022-08-29T14:55:01.388Z,1004.07
2022-08-29T15:00:01.429Z,1004.05
2022-08-29T15:05:01.417Z,1003.98
2022-08-29T15:10:02.066Z,1003.98
2022-08-29T15:15:01.551Z,1003.95
2022-08-29T15:20:34.993Z,1003.96
2022-08-29T15:25:01.675Z,1003.86
2022-08-29T15:30:01.887Z,1003.75
2022-08-29T15:35:01.392Z,1003.78
2022-08-29T15:40:01.212Z,1003.74
2022-08-29T15:45:02.601Z,1003.67
2022-08-29T15:50:02.087Z,1003.68
2022-08-29T15:55:01.179Z,1003.67
2022-08-29T16:00:01.396Z,1003.68
2022-08-29T16:05:02.066Z,1003.62
2022-08-29T16:10:04.715Z,1003.54
2022-08-29T16:15:05.396Z,1003.52
2022-08-29T16:20:02.294Z,1003.42
2022-08-29T16:25:02.341Z,1003.53
2022-08-29T16:30:02.370Z,1003.46
2022-08-29T16:35:06.977Z,1003.48
2022-08-29T16:40:06.979Z,1003.52
2022-08-29T16:45:01.945Z,1003.52
2022-08-29T16:50:01.545Z,1003.55
2022-08-29T16:55:02.020Z,1003.54
2022-08-29T17:00:02.104Z,1003.48
2022-08-29T17:05:01.897Z,1003.47
2022-08-29T17:10:01.444Z,1003.43
2022-08-29T17:15:01.867Z,1003.4
2022-08-29T17:20:02.171Z,1003.39
2022-08-29T17:25:01.950Z,1003.38
2022-08-29T17:30:01.991Z,1003.39
2022-08-29T17:35:02.102Z,1003.38
2022-08-29T17:40:01.373Z,1003.37
2022-08-29T17:45:01.343Z,1003.39
2022-08-29T17:50:01.655Z,1003.38
2022-08-29T17:55:06.513Z,1003.5
2022-08-29T18:00:01.636Z,1003.46
2022-08-29T18:05:01.206Z,1003.45
2022-08-29T18:10:01.870Z,1003.48
2022-08-29T18:15:01.469Z,1003.5
2022-08-29T18:20:01.935Z,1003.48
2022-08-29T18:25:01.547Z,1003.51
2022-08-29T18:30:01.891Z,1003.47
2022-08-29T18:35:01.626Z,1003.5
2022-08-29T18:40:01.632Z,1003.5
2022-08-29T18:45:01.401Z,1003.46
2022-08-29T18:50:01.655Z,1003.51
2022-08-29T18:55:01.818Z,1003.52
2022-08-29T19:00:01.573Z,1003.61
2022-08-29T19:05:01.438Z,1003.63
2022-08-29T19:10:01.917Z,1003.61
2022-08-29T19:15:01.959Z,1003.62
2022-08-29T19:20:02.137Z,1003.6
2022-08-29T19:25:01.360Z,1003.6
2022-08-29T19:30:05.233Z,1003.65
2022-08-29T19:35:01.188Z,1003.71
2022-08-29T19:40:01.485Z,1003.72
2022-08-29T19:45:01.640Z,1003.71
2022-08-29T19:50:01.599Z,1003.72
2022-08-29T19:55:01.513Z,1003.74
2022-08-29T20:00:01.970Z,1003.69
2022-08-29T20:05:01.900Z,1003.64
2022-08-29T20:10:01.970Z,1003.61
2022-08-29T20:15:01.842Z,1003.62
2022-08-29T20:20:02.152Z,1003.65
2022-08-29T20:25:01.386Z,1003.76
2022-08-29T20:30:01.827Z,1003.74
2022-08-29T20:35:01.873Z,1003.73
2022-08-29T20:40:01.800Z,1003.79
2022-08-29T20:45:01.884Z,1003.77
2022-08-29T20:50:01.853Z,1003.77
2022-08-29T20:55:02.192Z,1003.78
2022-08-29T21:00:01.921Z,1003.77
2022-08-29T21:05:01.412Z,1003.72
2022-08-29T21:10:02.223Z,1003.79
2022-08-29T21:15:01.900Z,1003.84
2022-08-29T21:20:01.371Z,1003.81
2022-08-29T21:25:02.094Z,1003.81
2022-08-29T21:30:01.553Z,1003.8
2022-08-29T21:35:01.298Z,1003.71
2022-08-29T21:40:01.761Z,1003.66
2022-08-29T21:45:01.306Z,1003.61
2022-08-29T21:50:01.491Z,1003.7
2022-08-29T21:55:01.811Z,1003.71
2022-08-29T22:00:01.435Z,1003.86
2022-08-29T22:05:01.904Z,1003.88
2022-08-29T22:10:01.173Z,1003.91
2022-08-29T22:15:02.084Z,1003.91
2022-08-29T22:20:01.205Z,1003.87
2022-08-29T22:25:01.267Z,1003.91
2022-08-29T22:30:01.798Z,1003.91
2022-08-29T22:35:01.486Z,1003.95
2022-08-29T22:40:02.115Z,1004.1
2022-08-29T22:45:04.232Z,1004.02
2022-08-29T22:50:01.363Z,1003.97
2022-08-29T22:55:01.920Z,1004.06
2022-08-29T23:00:01.294Z,1004.04
2022-08-29T23:05:04.417Z,1004.09
2022-08-29T23:10:01.414Z,1004.09
2022-08-29T23:15:01.401Z,1003.96
2022-08-29T23:20:01.186Z,1004.01
2022-08-29T23:25:01.744Z,1003.95
2022-08-29T23:30:01.372Z,1003.96
2022-08-29T23:35:02.010Z,1003.85
2022-08-29T23:40:01.670Z,1003.86
2022-08-29T23:45:01.571Z,1003.92
2022-08-29T23:50:01.358Z,1003.94
2022-08-29T23:55:01.300Z,1003.9
